Time;durP1;ratioP1;P1;durP2;ratioP2;P2;SDS_P1;SDS_P2;PMS_P1;PMS_P2;Temp;Humidity;BMP_temperature;BMP_pressure;BME280_temperature;BME280_humidity;BME280_pressure;Samples;Min_cycle;Max_cycle;Signal;HPM_P1;HPM_P2
2021/12/01 00:00:34;;;;;;;6.63;4.32;;;;;;;-2.97;74.67;92971.72;5101475;28;20063;-41
2021/12/01 00:03:00;;;;;;;11.63;7.65;;;;;;;-2.99;75.13;92982.25;5101788;28;20106;-40
2021/12/01 00:05:29;;;;;;;18.30;10.20;;;;;;;-3.30;76.17;92976.72;5101328;28;20044;-42
2021/12/01 00:07:54;;;;;;;;;;;;;;;-3.18;75.79;92968.28;5101122;28;20027;-44
2021/12/01 00:10:22;;;;;;;14.10;8.25;;;;;;;-3.21;75.55;92968.47;5103456;28;19923;-43
2021/12/01 00:12:48;;;;;;;5.22;3.38;;;;;;;-3.10;74.52;92966.63;5102723;28;20039;-46
2021/12/01 00:15:14;;;;;;;3.53;2.78;;;;;;;-3.31;76.19;92978.66;5102014;28;20115;-42
2021/12/01 00:17:40;;;;;;;6.80;4.95;;;;;;;-3.33;76.65;92983.78;5101171;28;20024;-41
2021/12/01 00:20:08;;;;;;;13.55;7.72;;;;;;;-3.26;75.66;92988.78;5102465;28;20573;-46
2021/12/01 00:22:34;;;;;;;10.48;7.07;;;;;;;-3.67;75.82;92984.53;5100923;28;20129;-43
2021/12/01 00:25:00;;;;;;;12.73;7.07;;;;;;;-3.76;77.07;92979.25;5101339;28;20610;-44
2021/12/01 00:27:25;;;;;;;10.88;5.72;;;;;;;-3.73;78.33;92982.97;5101883;28;20051;-44
2021/12/01 00:29:51;;;;;;;6.28;4.18;;;;;;;-3.66;78.19;92975.22;5100393;28;20089;-43
2021/12/01 00:32:17;;;;;;;9.48;5.28;;;;;;;-3.68;78.25;92961.47;5101105;28;20027;-43
2021/12/01 00:34:43;;;;;;;7.10;4.15;;;;;;;-3.62;77.82;92967.72;5100739;28;20699;-45
2021/12/01 00:37:09;;;;;;;4.10;3.33;;;;;;;-3.64;77.43;92955.91;5101593;28;20023;-42
2021/12/01 00:39:34;;;;;;;6.18;3.58;;;;;;;-3.72;77.66;92933.94;5100241;27;20032;-46
2021/12/01 00:42:00;;;;;;;9.02;5.35;;;;;;;-3.67;77.48;92932.53;5103199;28;20542;-48
2021/12/01 00:44:29;;;;;;;7.05;5.10;;;;;;;-3.73;78.30;92951.38;5099088;28;20024;-48
2021/12/01 00:47:03;;;;;;;14.82;5.57;;;;;;;-3.70;78.41;92955.09;5099415;28;20420;-45
2021/12/01 00:49:34;;;;;;;9.63;5.50;;;;;;;-3.55;76.61;92945.72;5101685;28;20023;-44
2021/12/01 00:51:59;;;;;;;17.50;7.45;;;;;;;-3.25;76.61;92940.94;5100752;28;20579;-45
2021/12/01 00:54:25;;;;;;;36.20;12.10;;;;;;;-3.29;76.37;92926.91;5098259;28;20024;-43
2021/12/01 00:56:51;;;;;;;16.80;6.75;;;;;;;-3.21;76.62;92939.53;5099678;28;20020;-43
2021/12/01 00:59:17;;;;;;;12.40;5.95;;;;;;;-3.11;76.09;92938.19;5099438;28;20421;-44
2021/12/01 01:01:43;;;;;;;8.25;5.85;;;;;;;-3.08;74.56;92926.44;5100195;28;20028;-44
2021/12/01 01:04:09;;;;;;;46.72;17.08;;;;;;;-3.28;75.91;92944.59;5103025;28;20020;-45
2021/12/01 01:06:35;;;;;;;11.93;6.60;;;;;;;-3.17;75.38;92929.28;5099441;28;20039;-43
2021/12/01 01:09:01;;;;;;;28.67;10.07;;;;;;;-3.28;76.43;92926.44;5101981;28;20027;-46
2021/12/01 01:17:38;;;;;;;6.45;3.10;;;;;;;-2.85;75.40;92913.91;5100084;28;20119;-47
2021/12/01 01:20:11;;;;;;;10.23;2.85;;;;;;;-2.95;74.44;92917.97;5098812;28;20036;-45
2021/12/01 01:22:38;;;;;;;5.72;3.70;;;;;;;-3.19;74.03;92902.00;5101747;28;20054;-43
2021/12/01 01:25:06;;;;;;;3.42;2.45;;;;;;;-3.14;74.02;92933.72;5097504;28;20039;-45
2021/12/01 01:27:32;;;;;;;2.30;1.90;;;;;;;-2.99;73.12;92930.19;5098997;28;20418;-43
2021/12/01 01:29:57;;;;;;;2.42;1.88;;;;;;;-3.00;74.28;92942.22;5099656;28;20024;-44
2021/12/01 01:32:23;;;;;;;6.28;3.47;;;;;;;-3.14;74.39;92931.00;5100221;28;20028;-44
2021/12/01 01:34:48;;;;;;;3.97;3.05;;;;;;;-3.16;74.45;92941.53;5099498;28;20027;-45
2021/12/01 01:37:14;;;;;;;5.60;3.30;;;;;;;-3.07;74.42;92940.66;5100801;28;21332;-42
2021/12/01 01:39:40;;;;;;;4.18;2.90;;;;;;;-3.12;73.54;92947.47;5098455;28;20028;-41
2021/12/01 01:42:05;;;;;;;4.00;3.10;;;;;;;-3.12;73.62;92944.06;5100983;28;20035;-42
2021/12/01 01:44:31;;;;;;;5.28;3.40;;;;;;;-2.90;73.12;92957.06;5098465;28;20034;-43
2021/12/01 01:46:57;;;;;;;10.73;5.72;;;;;;;-2.81;73.02;92957.66;5099467;28;20027;-40
2021/12/01 01:49:35;;;;;;;8.30;5.22;;;;;;;-2.76;73.02;92958.94;5098022;28;20036;-47
2021/12/01 01:52:01;;;;;;;7.57;4.43;;;;;;;-2.62;72.34;92952.69;5100465;28;20034;-45
2021/12/01 01:54:26;;;;;;;5.00;3.72;;;;;;;-2.59;71.95;92946.31;5098657;28;20487;-43
2021/12/01 01:56:52;;;;;;;4.82;2.97;;;;;;;-2.57;73.34;92947.34;5099528;27;20035;-44
2021/12/01 01:59:17;;;;;;;3.65;3.08;;;;;;;-2.49;74.00;92940.28;5096821;28;20036;-43
2021/12/01 02:01:44;;;;;;;4.75;3.22;;;;;;;-2.46;73.90;92955.56;5100769;28;20119;-45
2021/12/01 02:04:15;;;;;;;4.03;2.85;;;;;;;-2.50;73.33;92946.16;5098304;28;20043;-41
2021/12/01 02:06:41;;;;;;;7.25;3.90;;;;;;;-2.47;72.76;92931.72;5099122;28;20417;-41
2021/12/01 02:09:08;;;;;;;5.28;3.90;;;;;;;-2.46;72.28;92927.78;5099393;28;20562;-44
2021/12/01 02:11:34;;;;;;;7.30;4.80;;;;;;;-2.42;72.76;92931.00;5102341;28;20085;-44
2021/12/01 02:13:59;;;;;;;17.50;8.75;;;;;;;-2.42;73.59;92929.06;5100798;28;20024;-43
2021/12/01 02:16:26;;;;;;;10.35;6.55;;;;;;;-2.52;73.21;92918.88;5100995;28;20108;-43
2021/12/01 02:18:52;;;;;;;40.92;17.40;;;;;;;-2.71;73.64;92917.72;5099622;28;20073;-43
2021/12/01 02:21:36;;;;;;;14.35;8.52;;;;;;;-2.65;74.34;92932.03;5098826;28;20039;-43
2021/12/01 02:24:04;;;;;;;11.05;4.28;;;;;;;-2.85;73.68;92902.34;5099948;28;20076;-42
2021/12/01 02:26:32;;;;;;;4.05;2.97;;;;;;;-2.76;74.30;92921.09;5096921;28;20041;-43
2021/12/01 02:28:59;;;;;;;3.25;2.58;;;;;;;-2.77;73.42;92917.66;5095089;28;20039;-47
2021/12/01 02:31:30;;;;;;;4.40;2.95;;;;;;;-2.68;73.75;92919.47;5100471;28;20023;-43
2021/12/01 02:33:56;;;;;;;4.88;3.10;;;;;;;-2.57;73.81;92914.16;5103122;28;20046;-45
2021/12/01 02:36:22;;;;;;;3.20;2.72;;;;;;;-2.63;72.52;92908.72;5100340;28;20160;-44
2021/12/01 02:38:49;;;;;;;3.72;2.55;;;;;;;-2.53;71.48;92920.09;5099982;28;20165;-45
2021/12/01 02:41:15;;;;;;;3.03;2.72;;;;;;;-2.45;70.11;92918.47;5097129;28;20035;-44
2021/12/01 02:43:43;;;;;;;4.65;2.92;;;;;;;-2.35;71.56;92917.81;5097981;28;20111;-42
2021/12/01 02:46:09;;;;;;;4.40;2.77;;;;;;;-2.27;70.27;92923.50;5100795;28;20478;-44
2021/12/01 02:48:41;;;;;;;3.78;3.22;;;;;;;-2.19;71.71;92926.53;5102001;28;20031;-42
2021/12/01 02:51:09;;;;;;;6.13;3.47;;;;;;;-2.06;71.48;92926.88;5100691;28;20102;-43
2021/12/01 02:53:35;;;;;;;13.20;6.53;;;;;;;-1.97;70.07;92940.97;5097697;28;20035;-44
2021/12/01 02:56:02;;;;;;;11.02;5.50;;;;;;;-1.83;69.53;92940.09;5097242;28;20029;-44
2021/12/01 02:58:31;;;;;;;11.63;5.72;;;;;;;-1.73;69.00;92927.84;5099493;28;20031;-46
2021/12/01 03:01:03;;;;;;;9.55;4.20;;;;;;;-1.77;68.35;92932.75;5099318;28;20027;-46
2021/12/01 03:03:29;;;;;;;7.00;4.40;;;;;;;-1.76;69.69;92936.19;5097590;28;20079;-43
2021/12/01 03:05:54;;;;;;;7.28;3.58;;;;;;;-1.64;70.40;92943.91;5098532;28;20498;-44
2021/12/01 03:08:20;;;;;;;7.15;3.42;;;;;;;-1.57;68.91;92946.16;5097113;28;20527;-43
2021/12/01 03:10:48;;;;;;;8.52;4.82;;;;;;;-1.41;68.61;92933.97;5098150;28;20034;-43
2021/12/01 03:13:15;;;;;;;4.15;3.60;;;;;;;-1.55;67.74;92932.16;5100692;28;20042;-45
2021/12/01 03:15:41;;;;;;;3.45;2.92;;;;;;;-1.49;66.54;92948.44;5100383;28;20144;-45
2021/12/01 03:18:07;;;;;;;9.10;7.20;;;;;;;-1.45;68.36;92941.53;5094258;28;20186;-46
2021/12/01 03:20:33;;;;;;;10.52;6.50;;;;;;;-1.47;69.31;92946.69;5098020;28;20047;-45
2021/12/01 03:22:59;;;;;;;7.82;4.75;;;;;;;-1.56;68.53;92944.94;5098618;28;20041;-45
2021/12/01 03:25:27;;;;;;;5.53;3.03;;;;;;;-1.46;67.61;92931.22;5096333;28;20688;-43
2021/12/01 03:27:53;;;;;;;4.53;3.47;;;;;;;-1.40;66.10;92930.00;5096804;28;20023;-43
2021/12/01 03:30:19;;;;;;;4.63;3.45;;;;;;;-1.30;66.69;92925.16;5096962;28;20114;-46
2021/12/01 03:32:45;;;;;;;12.90;4.60;;;;;;;-1.36;66.39;92916.25;5097415;28;20023;-44
2021/12/01 03:35:13;;;;;;;5.00;3.90;;;;;;;-1.14;66.01;92938.75;5096752;28;20080;-43
2021/12/01 03:37:40;;;;;;;6.70;4.68;;;;;;;-1.07;65.26;92951.84;5097838;28;20028;-44
2021/12/01 03:40:07;;;;;;;3.53;2.80;;;;;;;-1.02;64.31;92963.94;5097142;28;20110;-45
2021/12/01 03:42:33;;;;;;;7.32;5.20;;;;;;;-0.98;64.87;92964.44;5097794;28;20423;-43
2021/12/01 03:44:58;;;;;;;14.15;6.95;;;;;;;-0.94;66.77;92967.66;5097241;28;20024;-43
2021/12/01 03:47:25;;;;;;;4.85;3.25;;;;;;;-1.05;67.58;92948.66;5098871;28;20031;-44
2021/12/01 03:49:51;;;;;;;5.80;2.70;;;;;;;-1.29;67.59;92951.00;5097573;28;20050;-43
2021/12/01 03:52:17;;;;;;;7.28;3.80;;;;;;;-1.32;67.39;92950.00;5096764;28;20115;-40
2021/12/01 03:54:44;;;;;;;13.90;7.25;;;;;;;-1.41;67.92;92949.47;5096995;28;20114;-40
2021/12/01 03:57:10;;;;;;;17.15;7.68;;;;;;;-1.46;67.70;92936.63;5097991;28;20134;-46
2021/12/01 03:59:36;;;;;;;15.38;8.25;;;;;;;-1.28;68.00;92957.91;5098408;28;20484;-40
2021/12/01 04:02:01;;;;;;;11.38;7.45;;;;;;;-1.06;67.37;92950.59;5098098;28;20040;-40
2021/12/01 04:04:27;;;;;;;14.48;8.07;;;;;;;-0.95;66.65;92955.31;5098867;28;20032;-41
2021/12/01 04:06:53;;;;;;;8.10;6.25;;;;;;;-0.84;65.34;92949.94;5096695;28;20024;-43
2021/12/01 04:09:18;;;;;;;7.95;5.13;;;;;;;-0.79;65.97;92962.78;5098555;28;20035;-44
2021/12/01 04:11:44;;;;;;;9.02;6.32;;;;;;;-0.89;68.16;92942.56;5096323;28;20435;-41
2021/12/01 04:14:10;;;;;;;7.60;4.45;;;;;;;-0.78;68.15;92953.44;5101655;28;20096;-42
2021/12/01 04:16:35;;;;;;;7.78;3.70;;;;;;;-0.68;67.33;92957.41;5098311;28;20509;-41
2021/12/01 04:19:01;;;;;;;8.07;4.68;;;;;;;-0.75;67.39;92941.59;5102288;28;20428;-42
2021/12/01 04:21:27;;;;;;;9.10;5.57;;;;;;;-0.57;67.33;92964.81;5102734;28;20055;-43
2021/12/01 04:23:53;;;;;;;8.38;5.20;;;;;;;-0.51;66.52;92946.59;5101264;28;20063;-42
2021/12/01 04:26:23;;;;;;;14.25;7.38;;;;;;;-0.55;67.34;92949.56;5101714;27;20035;-45
2021/12/01 04:28:49;;;;;;;14.85;6.80;;;;;;;-0.60;68.49;92954.94;5101960;28;20023;-42
2021/12/01 04:31:14;;;;;;;5.10;3.97;;;;;;;-0.84;68.87;92944.53;5099334;28;20479;-44
2021/12/01 04:33:40;;;;;;;7.97;4.57;;;;;;;-0.80;67.91;92955.88;5099621;28;20489;-43
2021/12/01 04:36:05;;;;;;;11.48;7.03;;;;;;;-0.68;68.84;92973.66;5098236;28;20016;-41
2021/12/01 04:38:31;;;;;;;11.02;6.07;;;;;;;-0.64;66.51;92963.34;5099471;28;20030;-42
2021/12/01 04:40:57;;;;;;;28.92;13.88;;;;;;;-0.65;66.80;92969.97;5100327;28;20051;-43
2021/12/01 04:43:22;;;;;;;8.75;4.97;;;;;;;-0.70;67.96;92973.41;5099677;28;20038;-46
2021/12/01 04:45:52;;;;;;;15.50;8.05;;;;;;;-0.60;67.79;92974.69;5098180;28;20397;-46
2021/12/01 04:48:18;;;;;;;15.18;9.55;;;;;;;-0.69;68.26;92977.59;5100783;28;20028;-43
2021/12/01 04:50:43;;;;;;;22.67;14.65;;;;;;;-0.75;69.16;92982.25;5099378;28;20100;-44
2021/12/01 04:53:09;;;;;;;13.18;8.18;;;;;;;-0.90;69.57;92968.91;5101538;28;20031;-49
2021/12/01 04:55:34;;;;;;;18.35;10.30;;;;;;;-0.61;69.43;92989.47;5099264;28;20055;-44
2021/12/01 04:58:00;;;;;;;12.75;8.00;;;;;;;-0.69;70.33;92982.31;5101985;27;20672;-45
2021/12/01 05:00:27;;;;;;;5.82;4.65;;;;;;;-0.63;69.12;92970.25;5099715;28;20428;-48
2021/12/01 05:02:53;;;;;;;8.23;6.25;;;;;;;-0.60;66.88;92976.63;5097072;28;20088;-47
2021/12/01 05:05:19;;;;;;;4.28;3.50;;;;;;;-0.54;66.23;92972.00;5099059;28;20446;-49
2021/12/01 05:07:45;;;;;;;12.55;5.88;;;;;;;-0.54;67.18;92972.72;5100226;28;20118;-47
2021/12/01 05:10:11;;;;;;;15.40;7.95;;;;;;;-0.65;68.50;92964.53;5098810;28;20058;-45
2021/12/01 05:12:37;;;;;;;19.30;10.73;;;;;;;-0.62;69.50;92971.72;5100528;28;20032;-45
2021/12/01 05:15:05;;;;;;;21.90;9.85;;;;;;;-0.64;68.68;92966.03;5099391;28;20058;-48
2021/12/01 05:17:31;;;;;;;9.63;5.85;;;;;;;-0.60;65.90;92976.63;5098329;28;20122;-46
2021/12/01 05:19:56;;;;;;;7.38;4.82;;;;;;;-0.64;65.72;92968.00;5100920;28;20023;-47
2021/12/01 05:22:22;;;;;;;7.28;4.50;;;;;;;-0.56;67.21;92975.19;5101546;28;20035;-49
2021/12/01 05:24:47;;;;;;;7.75;4.25;;;;;;;-0.47;66.69;92987.78;5098843;28;20708;-48
2021/12/01 05:27:13;;;;;;;7.05;3.30;;;;;;;-0.42;66.70;92993.22;5099560;27;20031;-47
2021/12/01 05:29:38;;;;;;;5.07;3.13;;;;;;;-0.47;67.64;92977.66;5099973;28;20085;-46
2021/12/01 05:32:05;;;;;;;5.88;3.95;;;;;;;-0.35;67.16;92992.75;5099672;28;20493;-41
2021/12/01 05:34:30;;;;;;;6.10;3.97;;;;;;;-0.27;67.75;92987.56;5099651;28;20106;-43
2021/12/01 05:36:59;;;;;;;15.75;10.23;;;;;;;-0.41;65.18;92994.69;5103076;28;20102;-43
2021/12/01 05:39:26;;;;;;;33.40;16.80;;;;;;;-0.36;66.03;92995.94;5098402;28;20035;-42
2021/12/01 05:41:52;;;;;;;9.10;5.88;;;;;;;-0.39;67.42;92997.66;5102750;28;20040;-44
2021/12/01 05:44:18;;;;;;;25.63;14.07;;;;;;;-0.33;66.90;93008.53;5096553;28;20151;-43
2021/12/01 05:46:43;;;;;;;9.30;6.35;;;;;;;-0.31;67.13;93012.25;5098289;28;20089;-43
2021/12/01 05:49:09;;;;;;;22.42;12.75;;;;;;;-0.44;65.74;92984.84;5099048;28;20066;-45
2021/12/01 05:51:34;;;;;;;28.45;12.25;;;;;;;-0.18;65.56;92992.78;5096294;28;20027;-43
2021/12/01 05:54:01;;;;;;;4.93;3.58;;;;;;;-0.13;65.20;93008.34;5099557;28;20165;-43
2021/12/01 05:56:27;;;;;;;22.30;13.88;;;;;;;-0.09;64.50;93004.13;5097520;28;20023;-45
2021/12/01 05:58:52;;;;;;;50.97;31.40;;;;;;;0.15;64.59;93009.13;5098287;28;20055;-42
2021/12/01 06:01:18;;;;;;;21.25;12.55;;;;;;;0.15;65.05;93006.41;5100706;28;20140;-42
2021/12/01 06:03:43;;;;;;;8.82;4.90;;;;;;;0.10;65.53;93015.28;5101102;28;20038;-42
2021/12/01 06:06:09;;;;;;;5.60;4.15;;;;;;;-0.08;66.75;93035.47;5101369;28;20036;-43
2021/12/01 06:08:35;;;;;;;6.18;4.35;;;;;;;0.02;65.90;93041.41;5098626;28;20036;-43
2021/12/01 06:11:00;;;;;;;10.85;7.25;;;;;;;0.15;65.71;93046.38;5098530;27;20028;-42
2021/12/01 06:13:26;;;;;;;5.63;3.45;;;;;;;0.11;65.54;93045.88;5101165;28;20032;-44
2021/12/01 06:15:51;;;;;;;4.22;3.58;;;;;;;0.16;66.30;93032.31;5098006;28;20044;-41
2021/12/01 06:18:18;;;;;;;9.48;4.78;;;;;;;0.13;67.67;93032.56;5102078;27;20250;-42
2021/12/01 06:20:44;;;;;;;10.85;7.72;;;;;;;0.22;66.83;93030.31;5099603;28;20034;-45
2021/12/01 06:23:10;;;;;;;6.78;5.20;;;;;;;0.19;66.27;93030.56;5098774;28;20420;-44
2021/12/01 06:25:35;;;;;;;6.65;4.88;;;;;;;0.13;67.63;93054.97;5099090;28;20023;-43
2021/12/01 06:28:01;;;;;;;9.77;6.18;;;;;;;0.18;66.53;93059.69;5101010;28;20043;-44
2021/12/01 06:30:31;;;;;;;34.95;17.95;;;;;;;0.05;66.26;93069.53;5099112;28;20035;-42
2021/12/01 06:32:56;;;;;;;6.10;3.70;;;;;;;0.01;67.64;93058.91;5097278;28;20093;-45
2021/12/01 06:35:22;;;;;;;3.42;2.40;;;;;;;0.20;69.12;93076.22;5099826;28;20417;-42
2021/12/01 06:37:48;;;;;;;5.28;2.28;;;;;;;0.26;67.75;93079.69;5098532;27;20023;-44
2021/12/01 06:40:14;;;;;;;13.30;8.80;;;;;;;0.25;68.77;93077.47;5098436;28;20070;-43
2021/12/01 06:42:40;;;;;;;6.50;4.10;;;;;;;0.32;67.91;93071.56;5100204;28;20035;-44
2021/12/01 06:45:07;;;;;;;6.10;5.18;;;;;;;0.48;67.60;93065.38;5097862;28;20024;-44
2021/12/01 06:47:32;;;;;;;4.18;3.38;;;;;;;0.63;68.40;93063.16;5099325;28;20027;-44
2021/12/01 06:49:59;;;;;;;4.55;3.72;;;;;;;0.69;67.34;93063.94;5100258;28;20024;-48
2021/12/01 06:52:27;;;;;;;18.52;13.48;;;;;;;0.84;65.47;93055.53;5097891;28;20027;-47
2021/12/01 06:54:54;;;;;;;9.60;5.80;;;;;;;0.85;66.16;93046.88;5096193;28;20073;-46
2021/12/01 06:57:20;;;;;;;26.55;17.77;;;;;;;1.01;65.81;93054.28;5096274;28;20042;-46
2021/12/01 06:59:46;;;;;;;20.15;12.63;;;;;;;1.22;64.41;93035.69;5095681;28;20027;-45
2021/12/01 07:02:12;;;;;;;13.68;8.07;;;;;;;1.34;64.57;93037.13;5096261;28;20056;-44
2021/12/01 07:04:38;;;;;;;11.30;8.50;;;;;;;1.45;64.10;93048.00;5093957;28;20028;-47
2021/12/01 07:07:04;;;;;;;12.60;9.02;;;;;;;1.56;62.92;93041.75;5095550;28;20032;-43
2021/12/01 07:09:29;;;;;;;25.30;15.68;;;;;;;1.58;63.50;93048.19;5093884;28;20035;-44
2021/12/01 07:11:55;;;;;;;12.13;6.72;;;;;;;1.68;63.17;93049.38;5095314;28;20080;-47
2021/12/01 07:14:21;;;;;;;5.95;4.47;;;;;;;1.63;62.78;93054.81;5094981;28;20042;-45
2021/12/01 07:16:47;;;;;;;7.25;4.05;;;;;;;1.62;63.90;93062.28;5095676;28;20055;-43
2021/12/01 07:19:13;;;;;;;7.15;5.13;;;;;;;1.73;63.35;93077.81;5096573;28;20032;-43
2021/12/01 07:21:38;;;;;;;9.55;6.68;;;;;;;1.79;63.28;93076.53;5096531;28;20027;-44
2021/12/01 07:24:04;;;;;;;11.73;8.45;;;;;;;1.87;63.10;93063.13;5094643;28;20039;-44
2021/12/01 07:26:31;;;;;;;7.32;5.00;;;;;;;2.20;62.89;93074.63;5093408;28;20071;-48
2021/12/01 07:28:56;;;;;;;9.30;5.38;;;;;;;2.96;60.76;93082.00;5094821;28;20036;-44
2021/12/01 07:31:22;;;;;;;8.20;5.03;;;;;;;3.53;59.39;93083.72;5098855;28;20122;-44
2021/12/01 07:33:47;;;;;;;26.13;15.02;;;;;;;3.82;56.79;93074.69;5095050;28;20508;-45
2021/12/01 07:36:15;;;;;;;12.77;8.80;;;;;;;4.29;57.25;93086.03;5096298;28;20030;-45
2021/12/01 07:38:40;;;;;;;6.35;4.50;;;;;;;5.21;54.49;93084.44;5096654;28;20489;-44
2021/12/01 07:41:06;;;;;;;21.38;12.20;;;;;;;5.97;52.15;93072.63;5096284;28;20032;-45
2021/12/01 07:43:32;;;;;;;8.82;5.68;;;;;;;6.23;51.63;93072.59;5093140;28;20047;-45
2021/12/01 07:46:00;;;;;;;14.18;9.30;;;;;;;6.56;50.20;93077.34;5094887;28;20017;-44
2021/12/01 07:48:26;;;;;;;12.05;7.25;;;;;;;7.26;47.81;93081.00;5099097;28;20061;-45
2021/12/01 07:50:51;;;;;;;7.75;3.50;;;;;;;7.81;47.18;93087.09;5099739;28;20051;-45
2021/12/01 07:53:17;;;;;;;5.95;2.83;;;;;;;8.41;44.84;93089.50;5095786;28;20555;-46
2021/12/01 07:55:42;;;;;;;8.32;6.45;;;;;;;7.47;46.21;93095.44;5097407;28;20047;-42
2021/12/01 07:58:08;;;;;;;9.82;5.97;;;;;;;6.64;47.91;93094.66;5099425;28;20092;-42
2021/12/01 08:00:34;;;;;;;6.70;4.60;;;;;;;6.23;48.14;93091.78;5099940;28;20032;-42
2021/12/01 08:02:59;;;;;;;13.05;4.00;;;;;;;5.90;49.48;93098.66;5100485;28;20535;-45
2021/12/01 08:05:25;;;;;;;15.82;9.45;;;;;;;5.86;51.22;93102.97;5101975;28;20053;-44
2021/12/01 08:07:51;;;;;;;7.35;5.28;;;;;;;5.52;50.91;93082.91;5098597;28;20027;-47
2021/12/01 08:10:16;;;;;;;7.35;6.18;;;;;;;5.23;52.04;93095.59;5099124;28;20504;-43
2021/12/01 08:12:42;;;;;;;12.93;9.25;;;;;;;5.14;52.63;93098.72;5099504;28;20041;-47
2021/12/01 08:15:08;;;;;;;10.20;6.28;;;;;;;4.94;52.90;93104.75;5098255;28;20529;-42
2021/12/01 08:17:34;;;;;;;6.45;4.47;;;;;;;4.59;53.75;93108.50;5098486;28;20035;-43
2021/12/01 08:20:00;;;;;;;7.60;5.97;;;;;;;4.61;55.47;93120.38;5100263;28;20106;-44
2021/12/01 08:22:26;;;;;;;5.35;3.42;;;;;;;4.25;55.01;93115.66;5101305;28;20122;-44
2021/12/01 08:24:54;;;;;;;3.67;2.53;;;;;;;4.02;55.34;93109.72;5102090;28;20119;-42
2021/12/01 08:27:23;;;;;;;7.07;5.07;;;;;;;4.22;57.08;93114.69;5098630;28;20512;-43
2021/12/01 08:29:48;;;;;;;7.90;2.95;;;;;;;4.06;55.12;93121.09;5098496;28;20630;-44
2021/12/01 08:32:14;;;;;;;8.20;3.33;;;;;;;4.26;55.56;93111.66;5099738;28;20063;-42
2021/12/01 08:34:39;;;;;;;12.90;8.68;;;;;;;4.25;56.99;93116.41;5096155;28;20027;-43
2021/12/01 08:37:10;;;;;;;7.95;6.25;;;;;;;4.26;56.73;93119.88;5096594;28;20077;-44
2021/12/01 08:39:36;;;;;;;9.23;5.70;;;;;;;4.34;56.17;93118.03;5098390;28;20028;-42
2021/12/01 08:42:02;;;;;;;6.35;5.20;;;;;;;4.41;56.52;93117.44;5097906;28;20569;-44
2021/12/01 08:44:28;;;;;;;7.28;4.93;;;;;;;4.58;55.65;93094.09;5097442;27;20031;-45
2021/12/01 08:46:54;;;;;;;6.80;5.50;;;;;;;4.84;55.43;93111.88;5096719;28;20081;-46
2021/12/01 08:49:20;;;;;;;9.13;5.45;;;;;;;4.49;55.65;93097.19;5099326;28;20268;-44
2021/12/01 08:51:45;;;;;;;9.35;4.75;;;;;;;4.80;56.99;93095.78;5097810;28;20038;-43
2021/12/01 08:54:13;;;;;;;7.63;3.40;;;;;;;5.06;55.28;93103.31;5097808;28;20024;-47
2021/12/01 08:56:40;;;;;;;4.75;3.33;;;;;;;5.18;53.26;93099.13;5100023;28;20107;-42
2021/12/01 08:59:06;;;;;;;15.63;3.88;;;;;;;4.89;54.44;93091.91;5099829;28;20077;-46
2021/12/01 09:01:32;;;;;;;7.28;4.93;;;;;;;4.72;53.94;93085.94;5097305;28;20020;-43
2021/12/01 09:03:57;;;;;;;6.40;4.53;;;;;;;5.07;55.40;93091.09;5095548;28;20042;-46
2021/12/01 09:06:23;;;;;;;7.28;4.55;;;;;;;5.10;54.90;93090.81;5097949;28;20470;-43
2021/12/01 09:08:48;;;;;;;11.02;6.03;;;;;;;5.14;54.51;93104.94;5099179;28;20058;-43
2021/12/01 09:11:14;;;;;;;13.25;5.03;;;;;;;5.38;53.36;93104.03;5096720;28;20067;-47
2021/12/01 09:13:40;;;;;;;5.85;4.57;;;;;;;5.41;53.82;93107.75;5098356;28;20778;-39
2021/12/01 09:16:06;;;;;;;5.85;3.72;;;;;;;5.26;54.28;93100.03;5097423;28;20131;-40
2021/12/01 09:18:33;;;;;;;7.70;3.90;;;;;;;4.96;56.06;93094.75;5099060;28;20127;-39
2021/12/01 09:21:00;;;;;;;6.47;4.10;;;;;;;4.79;56.54;93075.13;5098826;28;20051;-39
2021/12/01 09:23:25;;;;;;;8.13;5.32;;;;;;;5.32;55.52;93106.13;5097865;28;20058;-44
2021/12/01 09:25:51;;;;;;;5.60;3.40;;;;;;;5.72;54.30;93096.72;5097295;28;20059;-41
2021/12/01 09:28:20;;;;;;;8.18;6.20;;;;;;;6.18;52.85;93086.41;5099123;28;20015;-39
2021/12/01 09:30:46;;;;;;;5.72;4.35;;;;;;;6.42;52.51;93091.63;5098468;28;20038;-40
2021/12/01 09:33:12;;;;;;;9.25;4.80;;;;;;;6.40;53.11;93092.19;5095351;28;20032;-41
2021/12/01 09:35:38;;;;;;;9.82;7.47;;;;;;;6.32;53.08;93079.66;5097494;28;20019;-39
2021/12/01 09:38:04;;;;;;;18.50;7.43;;;;;;;6.62;53.07;93085.47;5094970;28;20019;-41
2021/12/01 09:40:30;;;;;;;22.92;13.07;;;;;;;6.93;52.62;93081.78;5094730;28;20088;-41
2021/12/01 09:42:56;;;;;;;16.10;9.00;;;;;;;7.43;51.14;93081.31;5094177;28;20035;-46
2021/12/01 09:45:24;;;;;;;10.95;7.63;;;;;;;8.02;49.84;93085.03;5095679;27;20027;-45
2021/12/01 09:47:50;;;;;;;11.75;9.10;;;;;;;8.30;49.11;93079.53;5094973;28;20027;-46
2021/12/01 09:50:16;;;;;;;7.35;5.07;;;;;;;8.55;49.23;93066.09;5094649;28;20035;-45
2021/12/01 09:52:42;;;;;;;6.90;3.22;;;;;;;8.86;47.84;93077.91;5093209;28;20027;-42
2021/12/01 09:55:12;;;;;;;7.28;4.90;;;;;;;9.26;46.59;93073.41;5096282;28;20027;-46
2021/12/01 09:57:37;;;;;;;;;;;;;;;9.23;45.40;93071.00;5098444;28;20175;-46
2021/12/01 10:00:04;;;;;;;19.63;10.90;;;;;;;9.24;46.21;93064.97;5096793;28;19916;-47
2021/12/01 10:02:29;;;;;;;8.93;5.15;;;;;;;10.02;44.16;93065.84;5099466;28;20092;-45
2021/12/01 10:04:55;;;;;;;19.60;14.07;;;;;;;10.50;43.06;93072.91;5098678;28;20027;-43
2021/12/01 10:07:32;;;;;;;4.30;3.90;;;;;;;11.41;41.39;93072.47;5097078;28;20038;-45
2021/12/01 10:10:06;;;;;;;5.97;2.95;;;;;;;12.60;38.49;93060.16;5094216;28;20039;-44
2021/12/01 10:12:49;;;;;;;4.15;2.83;;;;;;;13.05;38.01;93067.19;5095984;28;20059;-51
2021/12/01 10:15:29;;;;;;;5.05;2.60;;;;;;;13.54;36.38;93070.38;5094701;28;20052;-42
2021/12/01 10:18:09;;;;;;;3.78;2.65;;;;;;;14.04;35.58;93061.66;5098579;28;20063;-43
2021/12/01 10:20:34;;;;;;;5.30;3.13;;;;;;;14.12;35.54;93068.53;5096950;28;20508;-44
2021/12/01 10:23:11;;;;;;;4.05;3.40;;;;;;;14.29;34.85;93062.19;5098597;28;20121;-44
2021/12/01 10:25:37;;;;;;;6.30;3.28;;;;;;;14.68;33.90;93071.28;5099011;28;20069;-42
2021/12/01 10:28:03;;;;;;;12.40;8.73;;;;;;;15.18;33.88;93061.00;5096446;28;20036;-49
2021/12/01 10:30:42;;;;;;;9.35;6.68;;;;;;;15.08;34.12;93061.00;5096166;28;20034;-43
2021/12/01 10:33:16;;;;;;;5.63;3.97;;;;;;;15.77;33.47;93049.84;5095920;28;20483;-41
2021/12/01 10:35:42;;;;;;;6.65;3.35;;;;;;;16.07;33.24;93048.38;5096677;28;20028;-44
2021/12/01 10:38:09;;;;;;;7.22;4.45;;;;;;;16.10;32.02;93046.47;5094742;28;20031;-44
2021/12/01 10:40:36;;;;;;;3.85;2.95;;;;;;;15.66;32.28;93033.03;5098358;28;20035;-39
2021/12/01 10:43:09;;;;;;;2.78;2.00;;;;;;;15.47;32.03;93044.25;5096178;28;20412;-44
2021/12/01 10:45:40;;;;;;;2.78;1.95;;;;;;;15.17;33.71;93049.13;5097443;28;20047;-42
2021/12/01 10:48:09;;;;;;;7.90;1.92;;;;;;;14.92;33.49;93042.44;5096468;28;20032;-40
2021/12/01 10:50:39;;;;;;;3.35;2.20;;;;;;;14.44;33.74;93048.00;5096510;28;20031;-40
2021/12/01 10:53:07;;;;;;;3.95;2.60;;;;;;;14.52;35.56;93054.16;5095903;28;20035;-42
2021/12/01 10:55:34;;;;;;;4.57;2.80;;;;;;;14.02;36.06;93028.91;5095449;28;20034;-41
2021/12/01 10:58:03;;;;;;;3.20;2.08;;;;;;;14.09;35.59;93030.09;5097628;28;20070;-48
2021/12/01 11:00:32;;;;;;;5.05;2.78;;;;;;;14.52;35.14;93031.94;5098832;28;20459;-41
2021/12/01 11:03:08;;;;;;;5.05;3.05;;;;;;;14.74;34.72;93027.25;5098899;28;20034;-42
2021/12/01 11:05:37;;;;;;;4.25;2.40;;;;;;;14.83;33.71;93010.56;5096549;28;20028;-41
2021/12/01 11:08:13;;;;;;;4.60;2.72;;;;;;;15.00;34.08;93020.78;5096373;28;20036;-41
2021/12/01 11:10:39;;;;;;;3.53;1.92;;;;;;;14.99;34.33;93019.31;5097315;28;20063;-41
2021/12/01 11:13:06;;;;;;;3.22;2.35;;;;;;;14.79;35.27;93020.66;5096627;28;20032;-42
2021/12/01 11:15:43;;;;;;;3.72;2.90;;;;;;;14.75;33.78;93023.16;5097368;28;20075;-39
2021/12/01 11:18:17;;;;;;;3.58;2.70;;;;;;;14.99;32.42;93014.47;5095711;28;20059;-40
2021/12/01 11:20:43;;;;;;;3.58;2.78;;;;;;;14.89;34.29;93015.81;5099174;28;20107;-43
2021/12/01 11:23:11;;;;;;;3.45;2.05;;;;;;;14.76;34.13;93019.06;5103314;28;20088;-38
2021/12/01 11:25:38;;;;;;;3.08;2.42;;;;;;;15.13;34.46;93031.44;5103823;28;20039;-39
2021/12/01 11:28:05;;;;;;;4.15;3.10;;;;;;;15.10;33.75;93027.78;5102243;28;20141;-45
2021/12/01 11:30:31;;;;;;;2.38;2.10;;;;;;;14.92;33.50;93029.25;5100723;28;20036;-40
2021/12/01 11:32:56;;;;;;;5.10;3.00;;;;;;;14.67;35.07;93031.63;5103290;28;20130;-45
2021/12/01 11:35:22;;;;;;;3.78;2.33;;;;;;;14.20;34.96;93019.16;5101576;28;20031;-48
2021/12/01 11:37:54;;;;;;;3.83;2.53;;;;;;;13.79;37.41;93020.25;5101215;28;20599;-42